Airfield :
LOGIN :

Register | Disclaimer

   EN    FR    IT 

 










Legend :    VFR   Marginal VFR   IFR   Intensive IFR   Very Intensive IFR
Visi :
Ceiling :
>= 8 km
>= 3000ft
5 to 8 km
1000 to 3000 ft
1500m to 5 km
500 to 1000 ft
800 to 1500m
200 to 500 ft
< 800m
< 200 ft
Symbols :   Thunderstorms  Fog  Heavy snow  Heavy precipitations  Wind > 20 kt
SIGMETs :     Misc.  Thunderstorms  Icing  Turbulence  Mountain Waves  Volcanic Ashes







- Airport Elevation : 313 ft
- IATA code : LEH
- Download approach charts


LFOH - Le Havre Octeville

CURRENT METAR :
  • 240500Z AUTO 30001KT 9999 BKN015 BKN020 OVC026 09/07 Q1008

EXPIRED METARs :
  • 240430Z AUTO 00000KT 9999 BKN014 OVC019 09/08 Q1008
  • 240400Z AUTO 34001KT 9999 FEW013 BKN020 BKN046 09/07 Q1008
  • 240330Z AUTO 34007KT 9999 BKN014 BKN019 BKN024 09/07 Q1007
  • 240300Z AUTO 34010KT 9999 BKN012 OVC060 09/07 Q1007
  • 240230Z AUTO 33005KT 9999 FEW007 OVC056 08/07 Q1007

TAF TAF LFOH
Valid from the 24 at 06:00 until the 25 at 06:00 UTC


240500Z 2406/2506 34007KT 9999 BKN020
TEMPO 2406/2410 BKN013
BECMG 2410/2412 26012KT
TEMPO 2410/2502 3000 SHRA BKN015CB
BECMG 2420/2422 34013KT
ATIS : +33 2 35 54 64 93
No reported NOTAMs for that airfield.



MET'MAP, your aeronautical weather chart ! - Copyright ORBIFLY December 2007 - Disclaimer

ORBIFLY MET'MAP TEAM :

Programming & Development : Alexandra Zaïnal
Concept & Development : Baudouin d'Aumeries
Co-Development & Prog : Marc-Olivier Méhu
Technical & hardware support : Manuel Goepfert

Contact : metmap@orbifly.com




SOURCES & CREDITS :

   NOAA